Terminal Aerodrome Forecast
Issued by NWS Jackson, KY

Home | Current Version | Previous Version | Text Only | Print | Product List | Glossary Off
Versions: 1 2 3 4 5 6 7 8 9 10 11 12 13 14 15 16

000
FTUS43 KJKL 281133
TAFLOZ
TAF
KLOZ 281133Z 2812/2912 VRB03KT P6SM SCT250
     FM281900 21006KT P6SM VCTS SCT045CB
     FM290000 VRB03KT P6SM SCT040
     FM290800 00000KT 2SM BR BKN045=

USA.gov is the U.S. government's official web portal to all federal, state and local government web resources and services.